^^
Datos históricos de la estación: Murcia-Puente Tocinos
Diario Informe para Diciembre 17, 2019 Unidades:  Ambas    Ingés   Métrico
Diario Semanal Mensual Anual
  Máxima: Mínima: Promedio:
Temperatura: 61.9 °F /  16.6 °C 51.1 °F /  10.6 °C 55.9 °F /  13.3 °C
Punto de rocio: 50.2 °F /  10.1 °C 44.8 °F /  7.1 °C 48.4 °F /  9.1 °C
Humedad: 88.9% 59.9% 77%
Velocidad viento: 6.4mph /  10.3km/h - 3.7mph /  5.9km/h
Racha viento: 14.5mph /  23.3km/h - -
Viento- - SSO
Presión: 29.9 in /  1012.6 hPa 29.5 in /  999.5 hPa -
Precipitación: 0 in /  0.0 mm    
 
 
Tabla de datos para Diciembre 17, 2019
Hora Temperatura Punto de rocio Presión Viento Velocidad viento Racha viento Humedad Intensidad lluvia(por hora) Nubes
00:04 54.3 °F /  12.4 °C 50.2 °F /  10.1 °C 29.6in /  1000.9hPa OSO 1.9mph /  3km/h 5mph /  8km/h 86% 0in /  0.0mm
00:09 54.3 °F /  12.4 °C 50.2 °F /  10.1 °C 29.6in /  1000.9hPa SSO 1.4mph /  2.2km/h 5mph /  8km/h 86% 0in /  0.0mm
00:14 54.3 °F /  12.4 °C 50 °F /  10 °C 29.6in /  1000.9hPa SSO 1.9mph /  3km/h 5mph /  8km/h 85.4% 0in /  0.0mm
00:19 54.1 °F /  12.3 °C 49.6 °F /  9.8 °C 29.6in /  1000.9hPa OSO 2.4mph /  3.9km/h 5.2mph /  8.4km/h 85% 0in /  0.0mm
00:24 54.1 °F /  12.3 °C 49.5 °F /  9.7 °C 29.6in /  1000.9hPa Oeste 2.6mph /  4.2km/h 6.2mph /  10km/h 84.1% 0in /  0.0mm
00:29 54.1 °F /  12.3 °C 49.3 °F /  9.6 °C 29.5in /  1000.4hPa OSO 2.9mph /  4.7km/h 6mph /  9.7km/h 83.9% 0in /  0.0mm
00:34 54 °F /  12.2 °C 48.9 °F /  9.4 °C 29.5in /  1000.4hPa OSO 3mph /  4.8km/h 6mph /  9.7km/h 83% 0in /  0.0mm
00:39 54 °F /  12.2 °C 48.9 °F /  9.4 °C 29.5in /  1000.5hPa OSO 3.1mph /  5km/h 5.8mph /  9.3km/h 83% 0in /  0.0mm
00:44 54 °F /  12.2 °C 48.9 °F /  9.4 °C 29.5in /  1000.5hPa SO 3mph /  4.8km/h 6mph /  9.7km/h 83% 0in /  0.0mm
00:49 54 °F /  12.2 °C 48.9 °F /  9.4 °C 29.5in /  1000.5hPa SO 2.9mph /  4.7km/h 5.8mph /  9.3km/h 83% 0in /  0.0mm
00:54 53.8 °F /  12.1 °C 48.7 °F /  9.3 °C 29.5in /  1000.5hPa SO 3.2mph /  5.2km/h 6.2mph /  10km/h 83% 0in /  0.0mm
00:59 53.8 °F /  12.1 °C 48.7 °F /  9.3 °C 29.5in /  1000.2hPa SO 3.6mph /  5.8km/h 7.4mph /  11.9km/h 83% 0in /  0.0mm
01:04 53.6 °F /  12 °C 48.6 °F /  9.2 °C 29.5in /  1000.2hPa OSO 3.8mph /  6.1km/h 7mph /  11.3km/h 83% 0in /  0.0mm
01:09 53.6 °F /  12 °C 48.6 °F /  9.2 °C 29.5in /  1000.2hPa SO 4mph /  6.5km/h 6.2mph /  10km/h 83% 0in /  0.0mm
01:14 53.4 °F /  11.9 °C 48.6 °F /  9.2 °C 29.5in /  999.8hPa SSO 4mph /  6.5km/h 8.1mph /  13km/h 83% 0in /  0.0mm
01:17 53.4 °F /  11.9 °C 48.4 °F /  9.1 °C 29.5in /  999.8hPa SSO 4mph /  6.5km/h 9.7mph /  15.6km/h 83% 0in /  0.0mm
01:24 53.4 °F /  11.9 °C 48.4 °F /  9.1 °C 29.5in /  999.9hPa SSO 5.9mph /  9.5km/h 8.1mph /  13km/h 83% 0in /  0.0mm
01:29 53.6 °F /  12 °C 48.6 °F /  9.2 °C 29.5in /  999.9hPa SSO 5.9mph /  9.5km/h 9mph /  14.5km/h 83% 0in /  0.0mm
01:34 53.8 °F /  12.1 °C 48.7 °F /  9.3 °C 29.5in /  999.9hPa SSO 5mph /  8km/h 8.1mph /  13km/h 83% 0in /  0.0mm
01:39 53.6 °F /  12 °C 48.6 °F /  9.2 °C 29.5in /  999.9hPa SSO 4mph /  6.5km/h 8.1mph /  13km/h 83% 0in /  0.0mm
01:44 53.4 °F /  11.9 °C 48.4 °F /  9.1 °C 29.5in /  999.9hPa SSO 4.3mph /  7km/h 8mph /  12.9km/h 83% 0in /  0.0mm
01:49 53.2 °F /  11.8 °C 48.2 °F /  9 °C 29.5in /  999.9hPa SSO 4.7mph /  7.6km/h 7mph /  11.3km/h 83% 0in /  0.0mm
01:54 53.2 °F /  11.8 °C 48.2 °F /  9 °C 29.5in /  999.9hPa SO 4.5mph /  7.3km/h 7mph /  11.3km/h 83% 0in /  0.0mm
01:59 53.1 °F /  11.7 °C 48.2 °F /  9 °C 29.5in /  999.8hPa SO 4.3mph /  6.9km/h 6mph /  9.7km/h 83.5% 0in /  0.0mm
02:04 53.1 °F /  11.7 °C 48.4 °F /  9.1 °C 29.5in /  999.8hPa SO 4mph /  6.4km/h 6mph /  9.7km/h 84% 0in /  0.0mm
02:09 52.9 °F /  11.6 °C 48.2 °F /  9 °C 29.5in /  999.8hPa SO 3.6mph /  5.8km/h 5.9mph /  9.5km/h 84% 0in /  0.0mm
02:14 52.9 °F /  11.6 °C 48.2 °F /  9 °C 29.5in /  999.5hPa SSO 3.6mph /  5.8km/h 6mph /  9.7km/h 84% 0in /  0.0mm
02:19 52.9 °F /  11.6 °C 48.2 °F /  9 °C 29.5in /  999.5hPa SSO 3.6mph /  5.8km/h 7.6mph /  12.2km/h 84% 0in /  0.0mm
02:24 52.7 °F /  11.5 °C 48 °F /  8.9 °C 29.5in /  999.9hPa SSO 3.8mph /  6.1km/h 8.1mph /  13km/h 84% 0in /  0.0mm
02:29 52.5 °F /  11.4 °C 48 °F /  8.9 °C 29.5in /  999.9hPa SSO 4mph /  6.5km/h 8.5mph /  13.7km/h 84.5% 0in /  0.0mm
02:34 52.3 °F /  11.3 °C 48 °F /  8.9 °C 29.5in /  999.9hPa SSO 4.3mph /  7km/h 9mph /  14.5km/h 85% 0in /  0.0mm
02:39 52.3 °F /  11.3 °C 48 °F /  8.9 °C 29.5in /  1000.1hPa SSO 4.7mph /  7.6km/h 7mph /  11.3km/h 85% 0in /  0.0mm
02:44 52.2 °F /  11.2 °C 47.8 °F /  8.8 °C 29.5in /  1000.1hPa SSO 4.5mph /  7.3km/h 8.1mph /  13km/h 85% 0in /  0.0mm
02:49 52.2 °F /  11.2 °C 47.8 °F /  8.8 °C 29.5in /  1000.1hPa SO 4.3mph /  6.9km/h 9.2mph /  14.8km/h 85% 0in /  0.0mm
02:54 52.2 °F /  11.2 °C 47.8 °F /  8.8 °C 29.5in /  1000.3hPa SO 4.5mph /  7.2km/h 10mph /  16.1km/h 85% 0in /  0.0mm
02:59 52.3 °F /  11.3 °C 48 °F /  8.9 °C 29.5in /  1000.3hPa SO 4.7mph /  7.6km/h 10mph /  16.1km/h 85% 0in /  0.0mm
03:04 52.3 °F /  11.3 °C 48 °F /  8.9 °C 29.5in /  1000.3hPa OSO 4.5mph /  7.2km/h 7mph /  11.3km/h 85% 0in /  0.0mm
03:09 52.3 °F /  11.3 °C 48 °F /  8.9 °C 29.5in /  1000.3hPa OSO 4.3mph /  6.9km/h 7mph /  11.3km/h 85% 0in /  0.0mm
03:14 52.3 °F /  11.3 °C 48 °F /  8.9 °C 29.5in /  1000.1hPa OSO 4.3mph /  6.9km/h 7.4mph /  11.9km/h 85% 0in /  0.0mm
03:19 52.3 °F /  11.3 °C 48 °F /  8.9 °C 29.5in /  1000.1hPa OSO 4.3mph /  6.9km/h 7mph /  11.3km/h 85% 0in /  0.0mm
03:24 52.3 °F /  11.3 °C 48 °F /  8.9 °C 29.5in /  1000.4hPa OSO 4mph /  6.4km/h 6.2mph /  10km/h 85% 0in /  0.0mm
03:29 52.3 °F /  11.3 °C 48 °F /  8.9 °C 29.5in /  1000.4hPa Oeste 3.6mph /  5.8km/h 6.9mph /  11.1km/h 85% 0in /  0.0mm
03:34 52.3 °F /  11.3 °C 48 °F /  8.9 °C 29.5in /  1000.4hPa Oeste 3.6mph /  5.8km/h 7mph /  11.3km/h 85% 0in /  0.0mm
03:39 52.2 °F /  11.2 °C 47.8 °F /  8.8 °C 29.5in /  1000.4hPa OSO 3.6mph /  5.8km/h 5.2mph /  8.4km/h 85% 0in /  0.0mm
03:44 52.2 °F /  11.2 °C 47.8 °F /  8.8 °C 29.5in /  1000.2hPa OSO 3.4mph /  5.4km/h 6.4mph /  10.3km/h 85% 0in /  0.0mm
03:49 52.2 °F /  11.2 °C 47.8 °F /  8.8 °C 29.5in /  1000.2hPa SO 3.1mph /  5km/h 7mph /  11.3km/h 85% 0in /  0.0mm
03:54 52 °F /  11.1 °C 47.8 °F /  8.8 °C 29.5in /  1000.2hPa SSO 3mph /  4.8km/h 7mph /  11.3km/h 85.7% 0in /  0.0mm
03:59 52.2 °F /  11.2 °C 48 °F /  8.9 °C 29.5in /  1000.2hPa SO 2.9mph /  4.7km/h 5mph /  8km/h 86% 0in /  0.0mm
04:04 52.2 °F /  11.2 °C 47.8 °F /  8.8 °C 29.5in /  1000.2hPa OSO 2.9mph /  4.6km/h 5mph /  8km/h 85% 0in /  0.0mm
04:09 52.2 °F /  11.2 °C 47.8 °F /  8.8 °C 29.5in /  1000.2hPa OSO 2.9mph /  4.7km/h 5.9mph /  9.5km/h 85% 0in /  0.0mm
04:14 52.2 °F /  11.2 °C 47.8 °F /  8.8 °C 29.5in /  1000.2hPa SSO 3mph /  4.8km/h 6mph /  9.7km/h 85% 0in /  0.0mm
04:19 52.2 °F /  11.2 °C 47.8 °F /  8.8 °C 29.5in /  1000.2hPa SSO 3.1mph /  5km/h 9.2mph /  14.8km/h 85% 0in /  0.0mm
04:24 52.3 °F /  11.3 °C 48 °F /  8.9 °C 29.5in /  1000.2hPa SO 3.7mph /  6km/h 9mph /  14.5km/h 85% 0in /  0.0mm
04:29 52.5 °F /  11.4 °C 48 °F /  8.9 °C 29.5in /  1000.2hPa SSO 4.3mph /  6.9km/h 9.2mph /  14.8km/h 85% 0in /  0.0mm
04:34 52.5 °F /  11.4 °C 47.8 °F /  8.8 °C 29.5in /  1000.2hPa SSO 4.3mph /  6.9km/h 9mph /  14.5km/h 84% 0in /  0.0mm
04:39 52.5 °F /  11.4 °C 47.8 °F /  8.8 °C 29.5in /  1000.2hPa SSO 4.3mph /  6.9km/h 6mph /  9.7km/h 84% 0in /  0.0mm
04:44 52.5 °F /  11.4 °C 47.8 °F /  8.8 °C 29.5in /  1000.2hPa SSO 3.7mph /  6km/h 6mph /  9.7km/h 84% 0in /  0.0mm
04:49 52.5 °F /  11.4 °C 47.8 °F /  8.8 °C 29.5in /  1000.2hPa Sur 3.1mph /  5km/h 5mph /  8km/h 84% 0in /  0.0mm
04:54 52.5 °F /  11.4 °C 47.8 °F /  8.8 °C 29.5in /  1000.3hPa SE 3.1mph /  5km/h 6.9mph /  11.1km/h 84% 0in /  0.0mm
04:59 52.2 °F /  11.2 °C 47.7 °F /  8.7 °C 29.5in /  1000.3hPa SE 3.1mph /  5km/h 7mph /  11.3km/h 84.1% 0in /  0.0mm
05:04 51.8 °F /  11 °C 47.5 °F /  8.6 °C 29.5in /  1000.3hPa SSE 3.6mph /  5.8km/h 6mph /  9.7km/h 85% 0in /  0.0mm
05:09 51.4 °F /  10.8 °C 47.5 °F /  8.6 °C 29.5in /  1000.3hPa Sur 4mph /  6.5km/h 6.2mph /  10km/h 86% 0in /  0.0mm
05:14 51.4 °F /  10.8 °C 47.7 °F /  8.7 °C 29.5in /  1000.2hPa SSO 3.8mph /  6.1km/h 6mph /  9.7km/h 86.8% 0in /  0.0mm
05:19 51.3 °F /  10.7 °C 47.5 °F /  8.6 °C 29.5in /  1000.2hPa SSO 3.6mph /  5.8km/h 5mph /  8km/h 87% 0in /  0.0mm
05:24 51.3 °F /  10.7 °C 47.5 °F /  8.6 °C 29.5in /  1000.2hPa Sur 3mph /  4.9km/h 5.2mph /  8.4km/h 87% 0in /  0.0mm
05:29 51.3 °F /  10.7 °C 47.5 °F /  8.6 °C 29.5in /  1000.0hPa SSE 2.4mph /  3.9km/h 5mph /  8km/h 87% 0in /  0.0mm
05:34 51.3 °F /  10.7 °C 47.8 °F /  8.8 °C 29.5in /  1000.0hPa SSE 2.7mph /  4.3km/h 5mph /  8km/h 88% 0in /  0.0mm
05:39 51.3 °F /  10.7 °C 47.8 °F /  8.8 °C 29.5in /  1000.0hPa SSO 2.9mph /  4.6km/h 5mph /  8km/h 88% 0in /  0.0mm
05:44 51.3 °F /  10.7 °C 47.8 °F /  8.8 °C 29.5in /  999.9hPa SO 2.6mph /  4.2km/h 5.2mph /  8.4km/h 88% 0in /  0.0mm
05:49 51.4 °F /  10.8 °C 48 °F /  8.9 °C 29.5in /  999.9hPa SO 2.4mph /  3.9km/h 5.2mph /  8.4km/h 88% 0in /  0.0mm
05:54 51.6 °F /  10.9 °C 48 °F /  8.9 °C 29.5in /  1000.1hPa Sur 2.7mph /  4.4km/h 5mph /  8km/h 87.3% 0in /  0.0mm
05:59 51.8 °F /  11 °C 48 °F /  8.9 °C 29.5in /  1000.1hPa SSE 3.1mph /  5km/h 5mph /  8km/h 87% 0in /  0.0mm
06:04 51.8 °F /  11 °C 47.8 °F /  8.8 °C 29.5in /  1000.1hPa SE 2.2mph /  3.5km/h 5mph /  8km/h 86.2% 0in /  0.0mm
06:09 51.8 °F /  11 °C 47.7 °F /  8.7 °C 29.5in /  1000.1hPa SE 1.4mph /  2.2km/h 4.6mph /  7.4km/h 86% 0in /  0.0mm
06:14 51.6 °F /  10.9 °C 47.7 °F /  8.7 °C 29.5in /  1000.0hPa SE 1.6mph /  2.6km/h 5mph /  8km/h 86% 0in /  0.0mm
06:19 51.6 °F /  10.9 °C 47.8 °F /  8.8 °C 29.5in /  1000.0hPa SE 1.8mph /  2.9km/h 3.5mph /  5.6km/h 86.9% 0in /  0.0mm
06:24 51.6 °F /  10.9 °C 47.8 °F /  8.8 °C 29.5in /  1000.1hPa SE 1.6mph /  2.6km/h 3.5mph /  5.6km/h 87% 0in /  0.0mm
06:29 51.6 °F /  10.9 °C 47.8 °F /  8.8 °C 29.5in /  1000.1hPa SE 1.4mph /  2.2km/h 2.4mph /  3.9km/h 87% 0in /  0.0mm
06:34 51.6 °F /  10.9 °C 47.8 °F /  8.8 °C 29.5in /  1000.1hPa SE 0.7mph /  1.1km/h 2.3mph /  3.7km/h 87% 0in /  0.0mm
06:39 51.4 °F /  10.8 °C 47.7 °F /  8.7 °C 29.5in /  1000.2hPa Calm   3.6mph /  5.8km/h 87% 0in /  0.0mm
06:44 51.4 °F /  10.8 °C 47.8 °F /  8.8 °C 29.5in /  1000.2hPa SE 0.9mph /  1.5km/h 4.6mph /  7.4km/h 87% 0in /  0.0mm
06:49 51.4 °F /  10.8 °C 47.8 °F /  8.8 °C 29.5in /  1000.2hPa SE 1.8mph /  2.9km/h 5mph /  8km/h 87% 0in /  0.0mm
06:54 51.4 °F /  10.8 °C 47.7 °F /  8.7 °C 29.5in /  1000.5hPa SE 2.1mph /  3.4km/h 5mph /  8km/h 87% 0in /  0.0mm
06:59 51.3 °F /  10.7 °C 47.7 °F /  8.7 °C 29.5in /  1000.5hPa ESE 2.4mph /  3.9km/h 5.9mph /  9.5km/h 87% 0in /  0.0mm
07:04 51.3 °F /  10.7 °C 47.8 °F /  8.8 °C 29.5in /  1000.5hPa SE 2.7mph /  4.4km/h 6mph /  9.7km/h 87.9% 0in /  0.0mm
07:09 51.4 °F /  10.8 °C 48 °F /  8.9 °C 29.6in /  1000.7hPa SE 3.1mph /  5km/h 6mph /  9.7km/h 88% 0in /  0.0mm
07:14 51.4 °F /  10.8 °C 48 °F /  8.9 °C 29.6in /  1000.7hPa SE 2.5mph /  4.1km/h 5mph /  8km/h 88% 0in /  0.0mm
07:19 51.6 °F /  10.9 °C 48.2 °F /  9 °C 29.6in /  1000.7hPa SO 2mph /  3.2km/h 5.2mph /  8.4km/h 87.9% 0in /  0.0mm
07:24 51.4 °F /  10.8 °C 47.8 °F /  8.8 °C 29.6in /  1000.7hPa Oeste 2.2mph /  3.5km/h 5mph /  8km/h 87% 0in /  0.0mm
07:29 51.4 °F /  10.8 °C 47.8 °F /  8.8 °C 29.6in /  1000.7hPa Oeste 2.4mph /  3.9km/h 5mph /  8km/h 87.5% 0in /  0.0mm
07:34 51.4 °F /  10.8 °C 48 °F /  8.9 °C 29.6in /  1000.7hPa Oeste 2.4mph /  3.9km/h 5mph /  8km/h 88% 0in /  0.0mm
07:39 51.6 °F /  10.9 °C 48 °F /  8.9 °C 29.6in /  1000.9hPa Oeste 2.4mph /  3.9km/h 5mph /  8km/h 87.3% 0in /  0.0mm
07:44 51.6 °F /  10.9 °C 47.8 °F /  8.8 °C 29.6in /  1000.9hPa Oeste 2.2mph /  3.5km/h 5mph /  8km/h 87% 0in /  0.0mm
07:49 51.4 °F /  10.8 °C 47.8 °F /  8.8 °C 29.6in /  1000.9hPa Oeste 2mph /  3.2km/h 4mph /  6.4km/h 87% 0in /  0.0mm
07:54 51.4 °F /  10.8 °C 47.7 °F /  8.7 °C 29.6in /  1001.1hPa Oeste 1.9mph /  3.1km/h 4mph /  6.4km/h 87% 0in /  0.0mm
07:59 51.3 °F /  10.7 °C 47.5 °F /  8.6 °C 29.6in /  1001.1hPa Oeste 1.8mph /  2.9km/h 5.2mph /  8.4km/h 87% 0in /  0.0mm
08:04 51.3 °F /  10.7 °C 47.5 °F /  8.6 °C 29.6in /  1001.1hPa Oeste 2.4mph /  3.9km/h 5mph /  8km/h 87% 0in /  0.0mm
08:09 51.1 °F /  10.6 °C 47.7 °F /  8.7 °C 29.6in /  1001.5hPa Oeste 2.9mph /  4.6km/h 4.7mph /  7.6km/h 88% 0in /  0.0mm
08:14 51.1 °F /  10.6 °C 47.7 °F /  8.7 °C 29.6in /  1001.5hPa OSO 2.4mph /  3.9km/h 5mph /  8km/h 88% 0in /  0.0mm
08:19 51.3 °F /  10.7 °C 47.7 °F /  8.7 °C 29.6in /  1001.5hPa SSO 2mph /  3.2km/h 5.2mph /  8.4km/h 88% 0in /  0.0mm
08:24 51.3 °F /  10.7 °C 47.8 °F /  8.8 °C 29.6in /  1001.8hPa SSO 2.5mph /  4km/h 5mph /  8km/h 88% 0in /  0.0mm
08:29 51.4 °F /  10.8 °C 48 °F /  8.9 °C 29.6in /  1001.8hPa OSO 2.9mph /  4.7km/h 5mph /  8km/h 88% 0in /  0.0mm
08:34 51.4 °F /  10.8 °C 48 °F /  8.9 °C 29.6in /  1001.8hPa OSO 2.5mph /  4km/h 4mph /  6.4km/h 88% 0in /  0.0mm
08:39 51.4 °F /  10.8 °C 48 °F /  8.9 °C 29.6in /  1002.0hPa SO 2mph /  3.2km/h 5.4mph /  8.7km/h 88% 0in /  0.0mm
08:44 51.6 °F /  10.9 °C 48.2 °F /  9 °C 29.6in /  1002.0hPa SSO 2.2mph /  3.5km/h 7.4mph /  11.9km/h 88% 0in /  0.0mm
08:49 51.4 °F /  10.8 °C 48 °F /  8.9 °C 29.6in /  1002.0hPa SSO 2.4mph /  3.9km/h 7mph /  11.3km/h 88% 0in /  0.0mm
08:54 51.4 °F /  10.8 °C 48 °F /  8.9 °C 29.6in /  1002.1hPa SSO 3.2mph /  5.2km/h 7mph /  11.3km/h 88% 0in /  0.0mm
08:59 51.4 °F /  10.8 °C 48 °F /  8.9 °C 29.6in /  1002.1hPa Sur 4mph /  6.5km/h 6mph /  9.7km/h 88% 0in /  0.0mm
09:04 51.6 °F /  10.9 °C 48.2 °F /  9 °C 29.6in /  1002.1hPa SSE 3.4mph /  5.5km/h 5.2mph /  8.4km/h 88% 0in /  0.0mm
09:09 51.4 °F /  10.8 °C 48.2 °F /  9 °C 29.6in /  1002.3hPa SE 2.9mph /  4.7km/h 5.8mph /  9.3km/h 88% 0in /  0.0mm
09:14 51.4 °F /  10.8 °C 48 °F /  8.9 °C 29.6in /  1002.3hPa ESE 3mph /  4.8km/h 6mph /  9.7km/h 88% 0in /  0.0mm
09:19 51.4 °F /  10.8 °C 48 °F /  8.9 °C 29.6in /  1002.3hPa ESE 3.1mph /  5km/h 5mph /  8km/h 88% 0in /  0.0mm
09:24 51.4 °F /  10.8 °C 48 °F /  8.9 °C 29.6in /  1002.5hPa SE 2.7mph /  4.4km/h 5.2mph /  8.4km/h 88% 0in /  0.0mm
09:29 51.3 °F /  10.7 °C 47.8 °F /  8.8 °C 29.6in /  1002.5hPa SSE 2.4mph /  3.9km/h 5.8mph /  9.3km/h 88% 0in /  0.0mm
09:34 51.3 °F /  10.7 °C 48 °F /  8.9 °C 29.6in /  1002.5hPa Sur 3.2mph /  5.2km/h 6mph /  9.7km/h 88.5% 0in /  0.0mm
09:39 51.3 °F /  10.7 °C 48.2 °F /  9 °C 29.6in /  1002.9hPa Sur 4mph /  6.5km/h 6mph /  9.7km/h 88.9% 0in /  0.0mm
09:44 51.4 °F /  10.8 °C 48 °F /  8.9 °C 29.6in /  1002.9hPa Sur 4mph /  6.5km/h 6mph /  9.7km/h 88% 0in /  0.0mm
09:49 51.6 °F /  10.9 °C 48.2 °F /  9 °C 29.6in /  1002.9hPa Sur 4mph /  6.5km/h 6mph /  9.7km/h 88% 0in /  0.0mm
09:54 51.6 °F /  10.9 °C 48.2 °F /  9 °C 29.6in /  1003.1hPa SSO 4mph /  6.5km/h 8.1mph /  13km/h 88% 0in /  0.0mm
09:59 51.8 °F /  11 °C 48 °F /  8.9 °C 29.6in /  1003.1hPa SSO 4mph /  6.5km/h 8mph /  12.9km/h 87% 0in /  0.0mm
10:04 52 °F /  11.1 °C 48.2 °F /  9 °C 29.6in /  1003.1hPa SSO 4.2mph /  6.7km/h 7mph /  11.3km/h 86.9% 0in /  0.0mm
10:09 52 °F /  11.1 °C 47.8 °F /  8.8 °C 29.6in /  1003.4hPa Sur 4.3mph /  6.9km/h 6mph /  9.7km/h 86% 0in /  0.0mm
10:14 52.2 °F /  11.2 °C 48 °F /  8.9 °C 29.6in /  1003.4hPa SSO 4mph /  6.4km/h 6.9mph /  11.1km/h 86% 0in /  0.0mm
10:19 52.3 °F /  11.3 °C 48.2 °F /  9 °C 29.6in /  1003.4hPa SSO 3.6mph /  5.8km/h 7.4mph /  11.9km/h 85.9% 0in /  0.0mm
10:24 52.7 °F /  11.5 °C 48.2 °F /  9 °C 29.6in /  1003.7hPa SO 4.2mph /  6.7km/h 8.1mph /  13km/h 84.3% 0in /  0.0mm
10:29 53.1 °F /  11.7 °C 48.2 °F /  9 °C 29.6in /  1003.7hPa SSO 4.7mph /  7.6km/h 8mph /  12.9km/h 83.9% 0in /  0.0mm
10:34 53.2 °F /  11.8 °C 48 °F /  8.9 °C 29.6in /  1003.7hPa SO 4.3mph /  7km/h 6.9mph /  11.1km/h 82.5% 0in /  0.0mm
10:39 53.4 °F /  11.9 °C 47.8 °F /  8.8 °C 29.6in /  1003.8hPa SO 4mph /  6.5km/h 7mph /  11.3km/h 81.5% 0in /  0.0mm
10:44 53.8 °F /  12.1 °C 47.8 °F /  8.8 °C 29.6in /  1003.8hPa SSO 3.8mph /  6.1km/h 7mph /  11.3km/h 80.8% 0in /  0.0mm
10:49 54 °F /  12.2 °C 48 °F /  8.9 °C 29.6in /  1003.8hPa SO 3.6mph /  5.8km/h 5mph /  8km/h 80% 0in /  0.0mm
10:54 54.5 °F /  12.5 °C 48.4 °F /  9.1 °C 29.6in /  1003.9hPa SO 2.7mph /  4.4km/h 3.5mph /  5.6km/h 79.7% 0in /  0.0mm
10:59 55 °F /  12.8 °C 48.2 °F /  9 °C 29.6in /  1003.9hPa SSO 2mph /  3.2km/h 5.8mph /  9.3km/h 77.7% 0in /  0.0mm
11:04 55.2 °F /  12.9 °C 48.2 °F /  9 °C 29.6in /  1003.9hPa SSO 2.5mph /  4km/h 6.2mph /  10km/h 77% 0in /  0.0mm
11:09 55.4 °F /  13 °C 48 °F /  8.9 °C 29.7in /  1004.1hPa SSO 2.9mph /  4.7km/h 6mph /  9.7km/h 76.2% 0in /  0.0mm
11:14 55.4 °F /  13 °C 48 °F /  8.9 °C 29.7in /  1004.1hPa SO 3.3mph /  5.3km/h 6mph /  9.7km/h 76.2% 0in /  0.0mm
11:19 55.6 °F /  13.1 °C 48 °F /  8.9 °C 29.7in /  1004.1hPa SSO 3.6mph /  5.8km/h 5.8mph /  9.3km/h 76% 0in /  0.0mm
11:24 55.8 °F /  13.2 °C 48.4 °F /  9.1 °C 29.7in /  1004.2hPa Sur 3.6mph /  5.8km/h 6mph /  9.7km/h 76% 0in /  0.0mm
11:29 56.1 °F /  13.4 °C 48.2 °F /  9 °C 29.7in /  1004.2hPa SSE 3.6mph /  5.8km/h 5.9mph /  9.5km/h 74.7% 0in /  0.0mm
11:34 56.3 °F /  13.5 °C 48.2 °F /  9 °C 29.7in /  1004.2hPa Sur 3.6mph /  5.8km/h 6.4mph /  10.3km/h 74.2% 0in /  0.0mm
11:39 56.7 °F /  13.7 °C 48.6 °F /  9.2 °C 29.7in /  1004.3hPa SSE 3.6mph /  5.8km/h 8.1mph /  13km/h 74% 0in /  0.0mm
11:44 56.8 °F /  13.8 °C 48.6 °F /  9.2 °C 29.7in /  1004.3hPa SSO 3.9mph /  6.3km/h 8.1mph /  13km/h 73.9% 0in /  0.0mm
11:49 56.8 °F /  13.8 °C 48.4 °F /  9.1 °C 29.7in /  1004.3hPa SSO 4.3mph /  6.9km/h 8mph /  12.9km/h 73.3% 0in /  0.0mm
11:54 57 °F /  13.9 °C 48.4 °F /  9.1 °C 29.7in /  1004.4hPa Sur 4mph /  6.4km/h 6.9mph /  11.1km/h 73% 0in /  0.0mm
11:59 57 °F /  13.9 °C 48.6 °F /  9.2 °C 29.7in /  1004.4hPa SSO 3.6mph /  5.8km/h 7mph /  11.3km/h 73% 0in /  0.0mm
12:04 57.2 °F /  14 °C 48.6 °F /  9.2 °C 29.7in /  1004.4hPa SSO 3.6mph /  5.8km/h 6mph /  9.7km/h 73% 0in /  0.0mm
12:09 57.4 °F /  14.1 °C 48.7 °F /  9.3 °C 29.7in /  1004.4hPa SSO 3.6mph /  5.8km/h 6.9mph /  11.1km/h 73% 0in /  0.0mm
12:14 57.4 °F /  14.1 °C 48.4 °F /  9.1 °C 29.7in /  1004.3hPa OSO 3.6mph /  5.8km/h 7mph /  11.3km/h 72% 0in /  0.0mm
12:19 57.4 °F /  14.1 °C 48.4 °F /  9.1 °C 29.7in /  1004.3hPa OSO 3.6mph /  5.8km/h 7mph /  11.3km/h 72% 0in /  0.0mm
12:24 57.6 °F /  14.2 °C 48.6 °F /  9.2 °C 29.7in /  1004.3hPa Sur 3.4mph /  5.4km/h 6mph /  9.7km/h 72% 0in /  0.0mm
12:29 57.6 °F /  14.2 °C 48.6 °F /  9.2 °C 29.7in /  1004.3hPa SSO 3.1mph /  5km/h 7.4mph /  11.9km/h 71.9% 0in /  0.0mm
12:34 57.7 °F /  14.3 °C 48.7 °F /  9.3 °C 29.7in /  1004.3hPa SSO 3.5mph /  5.7km/h 7mph /  11.3km/h 72% 0in /  0.0mm
12:39 58.3 °F /  14.6 °C 48.9 °F /  9.4 °C 29.7in /  1004.3hPa SSO 4mph /  6.5km/h 6.4mph /  10.3km/h 71.3% 0in /  0.0mm
12:44 58.5 °F /  14.7 °C 48.7 °F /  9.3 °C 29.7in /  1004.3hPa OSO 3.8mph /  6.1km/h 7mph /  11.3km/h 70.1% 0in /  0.0mm
12:49 58.5 °F /  14.7 °C 48.7 °F /  9.3 °C 29.7in /  1004.3hPa SO 3.6mph /  5.8km/h 7mph /  11.3km/h 70% 0in /  0.0mm
12:54 58.6 °F /  14.8 °C 48.9 °F /  9.4 °C 29.7in /  1004.3hPa SO 3.4mph /  5.4km/h 6.2mph /  10km/h 69.9% 0in /  0.0mm
12:59 59 °F /  15 °C 48.9 °F /  9.4 °C 29.7in /  1004.3hPa SSO 3.1mph /  5km/h 6.2mph /  10km/h 69% 0in /  0.0mm
13:04 59.2 °F /  15.1 °C 49.1 °F /  9.5 °C 29.7in /  1004.3hPa SO 3.6mph /  5.8km/h 7.4mph /  11.9km/h 69% 0in /  0.0mm
13:09 59.4 °F /  15.2 °C 48.7 °F /  9.3 °C 29.7in /  1004.3hPa SO 4mph /  6.5km/h 7mph /  11.3km/h 68% 0in /  0.0mm
13:14 59.4 °F /  15.2 °C 48.9 °F /  9.4 °C 29.7in /  1004.2hPa SO 4mph /  6.5km/h 7mph /  11.3km/h 68.1% 0in /  0.0mm
13:19 59.5 °F /  15.3 °C 48.9 °F /  9.4 °C 29.7in /  1004.2hPa Oeste 4mph /  6.5km/h 7mph /  11.3km/h 68% 0in /  0.0mm
13:24 59.5 °F /  15.3 °C 48.9 °F /  9.4 °C 29.7in /  1004.2hPa Oeste 3.8mph /  6.1km/h 8.1mph /  13km/h 67.5% 0in /  0.0mm
13:29 59.9 °F /  15.5 °C 48.7 °F /  9.3 °C 29.7in /  1004.1hPa OSO 3.6mph /  5.8km/h 10.4mph /  16.7km/h 66.8% 0in /  0.0mm
13:34 60.1 °F /  15.6 °C 48.7 °F /  9.3 °C 29.7in /  1004.1hPa Oeste 3.8mph /  6.1km/h 10mph /  16.1km/h 66% 0in /  0.0mm
13:39 60.3 °F /  15.7 °C 48.7 °F /  9.3 °C 29.7in /  1004.1hPa ONO 4mph /  6.5km/h 7mph /  11.3km/h 66% 0in /  0.0mm
13:44 60.3 °F /  15.7 °C 48.7 °F /  9.3 °C 29.7in /  1004.0hPa OSO 3.8mph /  6.1km/h 8.1mph /  13km/h 65.3% 0in /  0.0mm
13:49 60.4 °F /  15.8 °C 48.2 °F /  9 °C 29.7in /  1004.0hPa OSO 3.6mph /  5.8km/h 8mph /  12.9km/h 64% 0in /  0.0mm
13:54 60.6 °F /  15.9 °C 48.2 °F /  9 °C 29.7in /  1004.0hPa SO 3.9mph /  6.3km/h 7.4mph /  11.9km/h 63.6% 0in /  0.0mm
13:59 60.8 °F /  16 °C 48 °F /  8.9 °C 29.7in /  1004.0hPa SSO 4.3mph /  6.9km/h 7mph /  11.3km/h 63% 0in /  0.0mm
14:04 61.2 °F /  16.2 °C 48.4 °F /  9.1 °C 29.7in /  1004.0hPa SO 4.2mph /  6.7km/h 6mph /  9.7km/h 62.4% 0in /  0.0mm
14:09 61.3 °F /  16.3 °C 48.2 °F /  9 °C 29.7in /  1004.0hPa ONO 4mph /  6.5km/h 6.4mph /  10.3km/h 61.7% 0in /  0.0mm
14:14 61.3 °F /  16.3 °C 48.2 °F /  9 °C 29.7in /  1004.0hPa Oeste 3.6mph /  5.8km/h 7mph /  11.3km/h 62% 0in /  0.0mm
14:19 61.3 °F /  16.3 °C 48.2 °F /  9 °C 29.7in /  1004.0hPa OSO 3.1mph /  5km/h 7mph /  11.3km/h 62% 0in /  0.0mm
14:24 61.3 °F /  16.3 °C 48.2 °F /  9 °C 29.7in /  1004.0hPa OSO 3.1mph /  5km/h 6mph /  9.7km/h 62% 0in /  0.0mm
14:29 61.3 °F /  16.3 °C 48.2 °F /  9 °C 29.6in /  1003.9hPa SSO 3.1mph /  5km/h 6.2mph /  10km/h 62% 0in /  0.0mm
14:34 61.3 °F /  16.3 °C 48.2 °F /  9 °C 29.6in /  1003.9hPa SSO 3.5mph /  5.7km/h 6.2mph /  10km/h 62% 0in /  0.0mm
14:39 61.2 °F /  16.2 °C 48 °F /  8.9 °C 29.7in /  1004.0hPa SO 4mph /  6.5km/h 6mph /  9.7km/h 62% 0in /  0.0mm
14:44 61.2 °F /  16.2 °C 48.2 °F /  9 °C 29.7in /  1004.0hPa SSO 4mph /  6.5km/h 6mph /  9.7km/h 62.2% 0in /  0.0mm
14:49 61.3 °F /  16.3 °C 48.2 °F /  9 °C 29.7in /  1004.0hPa SSO 4mph /  6.5km/h 6.9mph /  11.1km/h 62% 0in /  0.0mm
14:54 61.3 °F /  16.3 °C 48.2 °F /  9 °C 29.7in /  1004.1hPa SSO 3.6mph /  5.8km/h 7mph /  11.3km/h 62% 0in /  0.0mm
14:59 61.5 °F /  16.4 °C 48.4 °F /  9.1 °C 29.7in /  1004.1hPa SSO 3.1mph /  5km/h 6.2mph /  10km/h 62% 0in /  0.0mm
15:04 61.7 °F /  16.5 °C 48.6 °F /  9.2 °C 29.7in /  1004.1hPa SSE 3.4mph /  5.4km/h 6.9mph /  11.1km/h 62% 0in /  0.0mm
15:09 61.9 °F /  16.6 °C 48.7 °F /  9.3 °C 29.7in /  1004.3hPa SE 3.6mph /  5.8km/h 8.1mph /  13km/h 62% 0in /  0.0mm
15:14 61.9 °F /  16.6 °C 48.7 °F /  9.3 °C 29.7in /  1004.3hPa Sur 4mph /  6.4km/h 8.1mph /  13km/h 62.1% 0in /  0.0mm
15:19 61.9 °F /  16.6 °C 48.6 °F /  9.2 °C 29.7in /  1004.3hPa Sur 4.3mph /  6.9km/h 9.2mph /  14.8km/h 62% 0in /  0.0mm
15:24 61.5 °F /  16.4 °C 48.7 °F /  9.3 °C 29.7in /  1004.7hPa Sur 5.1mph /  8.2km/h 9.2mph /  14.8km/h 62.9% 0in /  0.0mm
15:29 61.5 °F /  16.4 °C 48.7 °F /  9.3 °C 29.7in /  1004.7hPa SSO 5.9mph /  9.5km/h 9mph /  14.5km/h 63% 0in /  0.0mm
15:34 61.5 °F /  16.4 °C 48.7 °F /  9.3 °C 29.7in /  1004.7hPa SSO 5.7mph /  9.1km/h 9.2mph /  14.8km/h 63% 0in /  0.0mm
15:39 61.5 °F /  16.4 °C 49.1 °F /  9.5 °C 29.7in /  1005.1hPa Sur 5.4mph /  8.7km/h 9mph /  14.5km/h 63.6% 0in /  0.0mm
15:44 61.5 °F /  16.4 °C 49.3 °F /  9.6 °C 29.7in /  1005.1hPa Sur 5.1mph /  8.2km/h 8mph /  12.9km/h 64% 0in /  0.0mm
15:49 61.3 °F /  16.3 °C 49.1 °F /  9.5 °C 29.7in /  1005.1hPa SSO 4.7mph /  7.6km/h 7mph /  11.3km/h 64% 0in /  0.0mm
15:54 61.3 °F /  16.3 °C 49.1 °F /  9.5 °C 29.7in /  1005.3hPa Sur 4.7mph /  7.6km/h 7mph /  11.3km/h 64% 0in /  0.0mm
15:59 61.2 °F /  16.2 °C 48.9 °F /  9.4 °C 29.7in /  1005.3hPa SSO 4.7mph /  7.6km/h 6mph /  9.7km/h 64% 0in /  0.0mm
16:04 61.2 °F /  16.2 °C 48.9 °F /  9.4 °C 29.7in /  1005.3hPa SSO 4.1mph /  6.6km/h 6mph /  9.7km/h 64% 0in /  0.0mm
16:09 61.2 °F /  16.2 °C 48.9 °F /  9.4 °C 29.7in /  1005.6hPa SSO 3.6mph /  5.8km/h 6.2mph /  10km/h 64% 0in /  0.0mm
16:14 61.2 °F /  16.2 °C 48.9 °F /  9.4 °C 29.7in /  1005.6hPa SSO 3.6mph /  5.8km/h 6mph /  9.7km/h 64.2% 0in /  0.0mm
16:19 61.2 °F /  16.2 °C 48.9 °F /  9.4 °C 29.7in /  1005.6hPa SSO 3.6mph /  5.8km/h 6.2mph /  10km/h 64.2% 0in /  0.0mm
16:24 61.2 °F /  16.2 °C 49.1 °F /  9.5 °C 29.7in /  1005.9hPa Sur 3.8mph /  6.1km/h 6.2mph /  10km/h 64.6% 0in /  0.0mm
16:29 61.2 °F /  16.2 °C 49.3 °F /  9.6 °C 29.7in /  1005.9hPa SE 4mph /  6.5km/h 6mph /  9.7km/h 65% 0in /  0.0mm
16:34 61.2 °F /  16.2 °C 49.3 °F /  9.6 °C 29.7in /  1005.9hPa SSE 3.5mph /  5.6km/h 5mph /  8km/h 65% 0in /  0.0mm
16:39 61.2 °F /  16.2 °C 49.3 °F /  9.6 °C 29.7in /  1006.1hPa Sur 2.9mph /  4.7km/h 5.9mph /  9.5km/h 65.1% 0in /  0.0mm
16:44 61 °F /  16.1 °C 49.5 °F /  9.7 °C 29.7in /  1006.1hPa Sur 3.4mph /  5.5km/h 6.2mph /  10km/h 66% 0in /  0.0mm
16:49 60.8 °F /  16 °C 49.5 °F /  9.7 °C 29.7in /  1006.1hPa SSE 4mph /  6.5km/h 6.2mph /  10km/h 66.2% 0in /  0.0mm
16:54 60.6 °F /  15.9 °C 49.3 °F /  9.6 °C 29.7in /  1006.2hPa SSE 4mph /  6.5km/h 6.2mph /  10km/h 66.4% 0in /  0.0mm
16:59 60.6 °F /  15.9 °C 49.6 °F /  9.8 °C 29.7in /  1006.2hPa SE 4mph /  6.5km/h 6mph /  9.7km/h 66.9% 0in /  0.0mm
17:04 60.4 °F /  15.8 °C 49.5 °F /  9.7 °C 29.7in /  1006.2hPa SE 4mph /  6.5km/h 6.2mph /  10km/h 67% 0in /  0.0mm
17:09 60.4 °F /  15.8 °C 49.8 °F /  9.9 °C 29.7in /  1006.3hPa ESE 4mph /  6.5km/h 6mph /  9.7km/h 68% 0in /  0.0mm
17:14 60.4 °F /  15.8 °C 49.8 °F /  9.9 °C 29.7in /  1006.3hPa ESE 3mph /  4.9km/h 4mph /  6.4km/h 68% 0in /  0.0mm
17:19 60.3 °F /  15.7 °C 49.8 °F /  9.9 °C 29.7in /  1006.3hPa SSE 2mph /  3.2km/h 5.9mph /  9.5km/h 68% 0in /  0.0mm
17:24 60.3 °F /  15.7 °C 50 °F /  10 °C 29.7in /  1006.6hPa SSE 2.5mph /  4.1km/h 6mph /  9.7km/h 69% 0in /  0.0mm
17:29 60.1 °F /  15.6 °C 49.8 °F /  9.9 °C 29.7in /  1006.6hPa Sur 3.1mph /  5km/h 6mph /  9.7km/h 69% 0in /  0.0mm
17:34 59.9 °F /  15.5 °C 49.6 °F /  9.8 °C 29.7in /  1006.6hPa SSE 3.4mph /  5.4km/h 6mph /  9.7km/h 69% 0in /  0.0mm
17:39 59.7 °F /  15.4 °C 49.8 °F /  9.9 °C 29.7in /  1006.9hPa SSE 3.6mph /  5.8km/h 5.8mph /  9.3km/h 69.7% 0in /  0.0mm
17:44 59.5 °F /  15.3 °C 49.8 °F /  9.9 °C 29.7in /  1006.9hPa SSE 3.4mph /  5.4km/h 6mph /  9.7km/h 70% 0in /  0.0mm
17:49 59.5 °F /  15.3 °C 49.8 °F /  9.9 °C 29.7in /  1006.9hPa SSE 3.1mph /  5km/h 6mph /  9.7km/h 70.3% 0in /  0.0mm
17:54 59.4 °F /  15.2 °C 50 °F /  10 °C 29.7in /  1007.1hPa SSE 3.5mph /  5.7km/h 6mph /  9.7km/h 71% 0in /  0.0mm
17:59 59.4 °F /  15.2 °C 50 °F /  10 °C 29.7in /  1007.1hPa SE 4mph /  6.5km/h 6mph /  9.7km/h 71% 0in /  0.0mm
18:04 59.4 °F /  15.2 °C 50.2 °F /  10.1 °C 29.7in /  1007.1hPa ESE 4mph /  6.5km/h 6mph /  9.7km/h 71.3% 0in /  0.0mm
18:09 59.2 °F /  15.1 °C 50.2 °F /  10.1 °C 29.7in /  1007.3hPa ESE 4mph /  6.5km/h 6mph /  9.7km/h 72% 0in /  0.0mm
18:14 59 °F /  15 °C 50 °F /  10 °C 29.7in /  1007.3hPa ESE 3.2mph /  5.1km/h 5mph /  8km/h 72% 0in /  0.0mm
18:19 58.6 °F /  14.8 °C 49.6 °F /  9.8 °C 29.7in /  1007.3hPa SSE 2.4mph /  3.9km/h 5mph /  8km/h 72% 0in /  0.0mm
18:24 58.5 °F /  14.7 °C 49.6 °F /  9.8 °C 29.8in /  1007.6hPa SSE 2.4mph /  3.9km/h 5mph /  8km/h 72% 0in /  0.0mm
18:29 58.5 °F /  14.7 °C 49.8 °F /  9.9 °C 29.8in /  1007.6hPa SSO 2.4mph /  3.9km/h 4.6mph /  7.4km/h 73% 0in /  0.0mm
18:34 58.5 °F /  14.7 °C 49.8 °F /  9.9 °C 29.8in /  1007.6hPa Oeste 2.4mph /  3.9km/h 5mph /  8km/h 73% 0in /  0.0mm
18:39 58.5 °F /  14.7 °C 50 °F /  10 °C 29.8in /  1007.9hPa ONO 2.4mph /  3.9km/h 5mph /  8km/h 73.5% 0in /  0.0mm
18:44 58.5 °F /  14.7 °C 50.2 °F /  10.1 °C 29.8in /  1007.9hPa Oeste 2.4mph /  3.9km/h 5mph /  8km/h 74% 0in /  0.0mm
18:49 58.5 °F /  14.7 °C 50.2 °F /  10.1 °C 29.8in /  1007.9hPa Oeste 2.4mph /  3.9km/h 5mph /  8km/h 74% 0in /  0.0mm
18:54 58.5 °F /  14.7 °C 50.2 °F /  10.1 °C 29.8in /  1008.2hPa Oeste 2.1mph /  3.4km/h 3mph /  4.8km/h 74% 0in /  0.0mm
18:59 58.5 °F /  14.7 °C 50.2 °F /  10.1 °C 29.8in /  1008.2hPa Oeste 1.8mph /  2.9km/h 3mph /  4.8km/h 74% 0in /  0.0mm
19:04 58.5 °F /  14.7 °C 50.2 °F /  10.1 °C 29.8in /  1008.2hPa Oeste 1.8mph /  2.9km/h 4.7mph /  7.6km/h 73.9% 0in /  0.0mm
19:09 58.5 °F /  14.7 °C 49.8 °F /  9.9 °C 29.8in /  1008.4hPa OSO 1.8mph /  2.9km/h 5mph /  8km/h 73% 0in /  0.0mm
19:14 58.6 °F /  14.8 °C 50 °F /  10 °C 29.8in /  1008.4hPa OSO 2.1mph /  3.4km/h 5mph /  8km/h 73% 0in /  0.0mm
19:19 58.6 °F /  14.8 °C 50 °F /  10 °C 29.8in /  1008.4hPa Sur 2.4mph /  3.9km/h 6.9mph /  11.1km/h 73% 0in /  0.0mm
19:24 58.6 °F /  14.8 °C 50.2 °F /  10.1 °C 29.8in /  1008.7hPa SSE 3mph /  4.8km/h 7mph /  11.3km/h 73.6% 0in /  0.0mm
19:29 58.3 °F /  14.6 °C 50.2 °F /  10.1 °C 29.8in /  1008.7hPa SSE 3.6mph /  5.8km/h 8.1mph /  13km/h 74.5% 0in /  0.0mm
19:34 57.9 °F /  14.4 °C 50.2 °F /  10.1 °C 29.8in /  1008.7hPa SSE 4.1mph /  6.6km/h 8mph /  12.9km/h 75.5% 0in /  0.0mm
19:39 57.7 °F /  14.3 °C 50.2 °F /  10.1 °C 29.8in /  1009.0hPa SSE 4.7mph /  7.6km/h 8.1mph /  13km/h 76% 0in /  0.0mm
19:44 57.6 °F /  14.2 °C 50 °F /  10 °C 29.8in /  1009.0hPa Sur 4.7mph /  7.6km/h 8mph /  12.9km/h 76% 0in /  0.0mm
19:49 57.6 °F /  14.2 °C 50 °F /  10 °C 29.8in /  1009.0hPa Sur 4.7mph /  7.6km/h 8.1mph /  13km/h 76% 0in /  0.0mm
19:54 57.7 °F /  14.3 °C 50 °F /  10 °C 29.8in /  1009.3hPa SSO 5mph /  8.1km/h 9.7mph /  15.6km/h 75.5% 0in /  0.0mm
19:59 57.7 °F /  14.3 °C 50 °F /  10 °C 29.8in /  1009.3hPa SSO 5.4mph /  8.7km/h 10mph /  16.1km/h 75% 0in /  0.0mm
20:04 57.9 °F /  14.4 °C 49.8 °F /  9.9 °C 29.8in /  1009.3hPa SSO 5.3mph /  8.5km/h 8.1mph /  13km/h 74.4% 0in /  0.0mm
20:09 58.3 °F /  14.6 °C 50 °F /  10 °C 29.8in /  1009.5hPa SSO 5.2mph /  8.4km/h 8.1mph /  13km/h 74% 0in /  0.0mm
20:14 58.3 °F /  14.6 °C 50 °F /  10 °C 29.8in /  1009.5hPa SO 4.9mph /  7.9km/h 8.1mph /  13km/h 74% 0in /  0.0mm
20:19 58.3 °F /  14.6 °C 50 °F /  10 °C 29.8in /  1009.5hPa SSO 4.7mph /  7.6km/h 7.4mph /  11.9km/h 74% 0in /  0.0mm
20:24 58.3 °F /  14.6 °C 50 °F /  10 °C 29.8in /  1009.7hPa SSO 4.3mph /  7km/h 7mph /  11.3km/h 74% 0in /  0.0mm
20:29 58.3 °F /  14.6 °C 50 °F /  10 °C 29.8in /  1009.7hPa SSO 4mph /  6.5km/h 9.7mph /  15.6km/h 74% 0in /  0.0mm
20:34 58.1 °F /  14.5 °C 50 °F /  10 °C 29.8in /  1009.7hPa SSO 4.3mph /  7km/h 10mph /  16.1km/h 74% 0in /  0.0mm
20:39 57.9 °F /  14.4 °C 50 °F /  10 °C 29.8in /  1010.0hPa SSO 4.7mph /  7.6km/h 9.2mph /  14.8km/h 74.8% 0in /  0.0mm
20:44 57.9 °F /  14.4 °C 50 °F /  10 °C 29.8in /  1010.0hPa SSO 5mph /  8km/h 9mph /  14.5km/h 75% 0in /  0.0mm
20:49 57.9 °F /  14.4 °C 50 °F /  10 °C 29.8in /  1010.0hPa SSO 5.2mph /  8.4km/h 9.2mph /  14.8km/h 75% 0in /  0.0mm
20:54 57.9 °F /  14.4 °C 49.8 °F /  9.9 °C 29.8in /  1010.2hPa Sur 5mph /  8km/h 9mph /  14.5km/h 74.5% 0in /  0.0mm
20:59 57.9 °F /  14.4 °C 49.6 °F /  9.8 °C 29.8in /  1010.2hPa Sur 4.7mph /  7.6km/h 9.2mph /  14.8km/h 74% 0in /  0.0mm
21:04 57.7 °F /  14.3 °C 49.6 °F /  9.8 °C 29.8in /  1010.2hPa Sur 5.1mph /  8.2km/h 9mph /  14.5km/h 74% 0in /  0.0mm
21:09 57.7 °F /  14.3 °C 49.6 °F /  9.8 °C 29.8in /  1010.4hPa SSO 5.4mph /  8.7km/h 9mph /  14.5km/h 74.4% 0in /  0.0mm
21:14 57.7 °F /  14.3 °C 49.8 °F /  9.9 °C 29.8in /  1010.4hPa Sur 5.7mph /  9.1km/h 9.2mph /  14.8km/h 75% 0in /  0.0mm
21:19 57.6 °F /  14.2 °C 49.8 °F /  9.9 °C 29.8in /  1010.4hPa Sur 5.9mph /  9.5km/h 9.7mph /  15.6km/h 75% 0in /  0.0mm
21:24 57.6 °F /  14.2 °C 49.3 °F /  9.6 °C 29.8in /  1010.7hPa SSO 6mph /  9.7km/h 10mph /  16.1km/h 74.1% 0in /  0.0mm
21:29 57.6 °F /  14.2 °C 49.1 °F /  9.5 °C 29.8in /  1010.7hPa SSO 6.2mph /  10km/h 10mph /  16.1km/h 73.4% 0in /  0.0mm
21:34 57.7 °F /  14.3 °C 49.1 °F /  9.5 °C 29.8in /  1010.7hPa SO 5.7mph /  9.2km/h 8.5mph /  13.7km/h 72.9% 0in /  0.0mm
21:39 57.7 °F /  14.3 °C 48.7 °F /  9.3 °C 29.9in /  1010.9hPa SSO 5.2mph /  8.4km/h 9mph /  14.5km/h 72% 0in /  0.0mm
21:44 57.7 °F /  14.3 °C 48.7 °F /  9.3 °C 29.9in /  1010.9hPa SSO 5mph /  8km/h 7.4mph /  11.9km/h 72% 0in /  0.0mm
21:49 57.7 °F /  14.3 °C 48.6 °F /  9.2 °C 29.9in /  1010.9hPa SSO 4.7mph /  7.6km/h 10mph /  16.1km/h 71.3% 0in /  0.0mm
21:54 57.7 °F /  14.3 °C 48.2 °F /  9 °C 29.9in /  1011.2hPa SSO 5mph /  8km/h 10.4mph /  16.7km/h 70.3% 0in /  0.0mm
21:59 57.9 °F /  14.4 °C 48.2 °F /  9 °C 29.9in /  1011.2hPa SO 5.2mph /  8.4km/h 10mph /  16.1km/h 70% 0in /  0.0mm
22:04 57.9 °F /  14.4 °C 47.8 °F /  8.8 °C 29.9in /  1011.2hPa SSO 5.2mph /  8.4km/h 8mph /  12.9km/h 69.2% 0in /  0.0mm
22:09 57.9 °F /  14.4 °C 47.7 °F /  8.7 °C 29.9in /  1011.5hPa SO 5.2mph /  8.4km/h 8.1mph /  13km/h 68.6% 0in /  0.0mm
22:14 58.1 °F /  14.5 °C 47.5 °F /  8.6 °C 29.9in /  1011.5hPa SSO 4.7mph /  7.6km/h 8mph /  12.9km/h 67.8% 0in /  0.0mm
22:19 58.3 °F /  14.6 °C 47.3 °F /  8.5 °C 29.9in /  1011.5hPa SSO 4.3mph /  6.9km/h 8.7mph /  14km/h 67% 0in /  0.0mm
22:24 58.5 °F /  14.7 °C 47.1 °F /  8.4 °C 29.9in /  1011.6hPa SSO 4.7mph /  7.6km/h 9.2mph /  14.8km/h 66.2% 0in /  0.0mm
22:29 58.3 °F /  14.6 °C 47.1 °F /  8.4 °C 29.9in /  1011.6hPa Sur 5.2mph /  8.4km/h 9mph /  14.5km/h 66% 0in /  0.0mm
22:34 58.5 °F /  14.7 °C 47.1 °F /  8.4 °C 29.9in /  1011.6hPa SSO 5.2mph /  8.4km/h 8mph /  12.9km/h 66% 0in /  0.0mm
22:39 58.5 °F /  14.7 °C 47.1 °F /  8.4 °C 29.9in /  1011.8hPa SSO 5.2mph /  8.4km/h 7mph /  11.3km/h 66% 0in /  0.0mm
22:44 58.3 °F /  14.6 °C 46.9 °F /  8.3 °C 29.9in /  1011.8hPa SSO 5mph /  8km/h 9.2mph /  14.8km/h 66% 0in /  0.0mm
22:49 58.3 °F /  14.6 °C 46.9 °F /  8.3 °C 29.9in /  1011.8hPa SSO 4.7mph /  7.6km/h 9mph /  14.5km/h 66% 0in /  0.0mm
22:54 58.3 °F /  14.6 °C 46.6 °F /  8.1 °C 29.9in /  1012.1hPa SSO 5.3mph /  8.6km/h 9.2mph /  14.8km/h 65.1% 0in /  0.0mm
22:59 58.5 °F /  14.7 °C 46.6 °F /  8.1 °C 29.9in /  1012.1hPa SO 5.9mph /  9.5km/h 9mph /  14.5km/h 65% 0in /  0.0mm
23:04 58.3 °F /  14.6 °C 46.6 °F /  8.1 °C 29.9in /  1012.1hPa SO 5.2mph /  8.4km/h 7mph /  11.3km/h 65% 0in /  0.0mm
23:09 58.3 °F /  14.6 °C 46.6 °F /  8.1 °C 29.9in /  1012.3hPa SO 4.7mph /  7.6km/h 7mph /  11.3km/h 65% 0in /  0.0mm
23:14 58.3 °F /  14.6 °C 46.2 °F /  7.9 °C 29.9in /  1012.3hPa OSO 4.5mph /  7.2km/h 8.1mph /  13km/h 64.1% 0in /  0.0mm
23:19 58.3 °F /  14.6 °C 45.9 °F /  7.7 °C 29.9in /  1012.3hPa OSO 4.3mph /  6.9km/h 10.2mph /  16.4km/h 63.3% 0in /  0.0mm
23:24 58.5 °F /  14.7 °C 45.7 °F /  7.6 °C 29.9in /  1012.5hPa OSO 4.8mph /  7.8km/h 10.4mph /  16.7km/h 62.4% 0in /  0.0mm
23:29 58.5 °F /  14.7 °C 45.5 °F /  7.5 °C 29.9in /  1012.5hPa OSO 5.4mph /  8.7km/h 10mph /  16.1km/h 62% 0in /  0.0mm
23:34 58.5 °F /  14.7 °C 45.3 °F /  7.4 °C 29.9in /  1012.5hPa OSO 5mph /  8.1km/h 9mph /  14.5km/h 61.5% 0in /  0.0mm
23:39 58.5 °F /  14.7 °C 45.1 °F /  7.3 °C 29.9in /  1012.6hPa OSO 4.7mph /  7.6km/h 11.5mph /  18.5km/h 61% 0in /  0.0mm
23:44 58.6 °F /  14.8 °C 45.1 °F /  7.3 °C 29.9in /  1012.6hPa OSO 5mph /  8.1km/h 13.7mph /  22km/h 60.8% 0in /  0.0mm
23:49 58.6 °F /  14.8 °C 44.8 °F /  7.1 °C 29.9in /  1012.6hPa OSO 5.4mph /  8.7km/h 14mph /  22.5km/h 60% 0in /  0.0mm
23:54 58.6 °F /  14.8 °C 44.8 °F /  7.1 °C 29.9in /  1012.6hPa Oeste 5.9mph /  9.5km/h 14mph /  22.5km/h 60% 0in /  0.0mm
23:59 58.6 °F /  14.8 °C 44.8 °F /  7.1 °C 29.9in /  1012.6hPa OSO 6.4mph /  10.3km/h 14.5mph /  23.3km/h 59.9% 0in /  0.0mm
Murcia-Puente Tocinos, España
Compliments of Weather Underground - 3 mb

La estación de MeteoMurcia.com, publica sus datos en los siguientes proyectos:

Weather Underground PWS IMURCIAP2 Meteoclimatic www.awekas.at

W3Counter
Web Analytics